Time;durP1;ratioP1;P1;durP2;ratioP2;P2;SDS_P1;SDS_P2;PMS_P1;PMS_P2;Temp;Humidity;BMP_temperature;BMP_pressure;BME280_temperature;BME280_humidity;BME280_pressure;Samples;Min_cycle;Max_cycle;Signal;HPM_P1;HPM_P2
2023/10/01 00:00:00;;;;;;;5.35;2.65;;;;;;;14.96;100.00;102126.66;6254880;28;20049;-73
2023/10/01 00:03:02;;;;;;;8.43;3.55;;;;;;;14.92;100.00;102125.09;6254881;28;20049;-72
2023/10/01 00:06:04;;;;;;;4.80;2.70;;;;;;;14.91;100.00;102134.81;6254705;28;20051;-71
2023/10/01 00:09:06;;;;;;;4.25;2.72;;;;;;;14.90;100.00;102142.84;6254365;28;20363;-73
2023/10/01 00:12:10;;;;;;;8.50;3.42;;;;;;;14.91;100.00;102134.81;6252702;28;20041;-70
2023/10/01 00:15:17;;;;;;;6.35;2.80;;;;;;;14.93;100.00;102130.28;6246335;28;20049;-70
2023/10/01 00:18:20;;;;;;;5.45;2.88;;;;;;;14.93;100.00;102134.72;6254466;28;20060;-72
2023/10/01 00:21:21;;;;;;;7.13;2.72;;;;;;;14.95;100.00;102124.94;6254248;28;20041;-72
2023/10/01 00:24:22;;;;;;;5.97;3.10;;;;;;;14.96;100.00;102131.94;6254212;28;20501;-72
2023/10/01 00:27:25;;;;;;;6.13;2.80;;;;;;;14.95;100.00;102124.94;6254413;28;20056;-72
2023/10/01 00:30:31;;;;;;;7.82;3.22;;;;;;;14.93;100.00;102132.09;6253876;28;20059;-72
2023/10/01 00:33:32;;;;;;;6.97;2.95;;;;;;;14.92;100.00;102110.06;6254193;28;20054;-71
2023/10/01 00:36:35;;;;;;;6.55;3.33;;;;;;;14.90;100.00;102101.34;6254112;28;20056;-72
2023/10/01 00:39:37;;;;;;;8.38;3.50;;;;;;;14.84;100.00;102100.78;6253871;28;20053;-73
2023/10/01 00:42:40;;;;;;;7.43;3.13;;;;;;;14.77;100.00;102105.53;6253965;28;20052;-70
2023/10/01 00:45:42;;;;;;;6.38;2.92;;;;;;;14.76;100.00;102105.59;6253722;28;20045;-72
2023/10/01 00:48:44;;;;;;;9.85;2.90;;;;;;;14.75;100.00;102093.28;6253637;28;20449;-72
2023/10/01 00:51:46;;;;;;;5.53;2.83;;;;;;;14.74;100.00;102103.03;6253230;28;20372;-72
2023/10/01 00:54:48;;;;;;;8.25;3.10;;;;;;;14.72;100.00;102099.59;6253690;28;20049;-71
2023/10/01 00:57:54;;;;;;;5.38;3.60;;;;;;;14.74;100.00;102104.81;6253474;28;20053;-72
2023/10/01 01:00:56;;;;;;;11.23;3.40;;;;;;;14.75;100.00;102101.22;6251145;28;20045;-72
2023/10/01 01:03:57;;;;;;;8.27;3.20;;;;;;;14.77;100.00;102089.66;6241247;28;20052;-72
2023/10/01 01:07:03;;;;;;;5.45;2.63;;;;;;;14.80;100.00;102088.63;6253429;28;20345;-72
2023/10/01 01:10:06;;;;;;;7.63;3.40;;;;;;;14.76;100.00;102110.88;6253092;28;20060;-73
2023/10/01 01:13:16;;;;;;;5.63;3.22;;;;;;;14.66;100.00;102116.63;6253057;28;20099;-72
2023/10/01 01:16:19;;;;;;;9.82;3.50;;;;;;;14.73;100.00;102122.50;6253205;28;20140;-72
2023/10/01 01:19:21;;;;;;;7.10;3.35;;;;;;;14.71;100.00;102108.47;6253045;28;20056;-72
2023/10/01 01:22:29;;;;;;;5.53;3.08;;;;;;;14.75;100.00;102117.13;6253196;28;20048;-73
2023/10/01 01:25:32;;;;;;;6.43;3.53;;;;;;;14.77;100.00;102113.47;6253357;28;20050;-72
2023/10/01 01:28:35;;;;;;;7.00;3.35;;;;;;;14.76;100.00;102114.41;6253305;28;20179;-73
2023/10/01 01:31:45;;;;;;;7.53;3.65;;;;;;;14.79;100.00;102101.00;6250033;28;20129;-72
2023/10/01 01:34:47;;;;;;;4.75;2.35;;;;;;;14.80;100.00;102085.97;6242708;28;20054;-72
2023/10/01 01:37:54;;;;;;;6.57;3.42;;;;;;;14.77;100.00;102084.34;6252756;28;20064;-72
2023/10/01 01:40:55;;;;;;;6.65;2.90;;;;;;;14.76;100.00;102092.34;6245066;28;20060;-72
2023/10/01 01:43:57;;;;;;;7.45;2.55;;;;;;;14.74;100.00;102097.72;6226174;28;20327;-72
2023/10/01 01:47:00;;;;;;;14.02;3.88;;;;;;;14.70;100.00;102107.59;6216073;28;20054;-72
2023/10/01 01:50:17;;;;;;;5.30;3.22;;;;;;;14.70;100.00;102096.16;6227633;28;20054;-72
2023/10/01 01:53:20;;;;;;;5.85;3.22;;;;;;;14.65;100.00;102096.38;6238389;28;20048;-72
2023/10/01 01:56:22;;;;;;;12.43;3.60;;;;;;;14.63;100.00;102095.63;6236311;28;20135;-72
2023/10/01 01:59:27;;;;;;;9.88;3.03;;;;;;;14.60;100.00;102085.19;6244343;28;20054;-72
2023/10/01 02:02:28;;;;;;;7.40;3.22;;;;;;;14.58;100.00;102084.41;6227875;28;20053;-72
2023/10/01 02:05:30;;;;;;;4.88;2.70;;;;;;;14.57;100.00;102085.31;6243965;28;20053;-72
2023/10/01 02:08:49;;;;;;;8.95;3.50;;;;;;;14.53;100.00;102080.25;6251919;28;20045;-72
2023/10/01 02:11:52;;;;;;;;;;;;;;;14.47;100.00;102074.28;6272408;23;20361;-73
2023/10/01 02:14:56;;;;;;;6.80;3.40;;;;;;;14.42;100.00;102068.38;6251837;28;19925;-74
2023/10/01 02:17:57;;;;;;;6.10;3.17;;;;;;;14.42;100.00;102057.78;6261251;28;20045;-73
2023/10/01 02:20:59;;;;;;;5.22;3.28;;;;;;;14.38;100.00;102066.81;6251744;28;20053;-73
2023/10/01 02:24:01;;;;;;;8.90;3.40;;;;;;;14.34;100.00;102070.53;6251566;28;20072;-73
2023/10/01 02:27:04;;;;;;;7.00;3.25;;;;;;;14.30;100.00;102084.81;6251792;28;20045;-73
2023/10/01 02:30:14;;;;;;;9.65;4.20;;;;;;;14.27;100.00;102082.34;6251348;28;20135;-73
2023/10/01 02:33:18;;;;;;;9.10;3.13;;;;;;;14.24;100.00;102084.28;6251758;28;20081;-74
2023/10/01 02:36:22;;;;;;;7.95;3.60;;;;;;;14.21;100.00;102070.25;6243373;28;20052;-74
2023/10/01 02:39:28;;;;;;;5.03;2.92;;;;;;;14.18;100.00;102062.47;6243049;28;20091;-72
2023/10/01 02:42:31;;;;;;;6.72;3.00;;;;;;;14.16;100.00;102048.47;6247868;28;20056;-75
2023/10/01 02:45:34;;;;;;;9.20;3.22;;;;;;;14.11;100.00;102054.91;6242793;28;20053;-73
2023/10/01 02:48:36;;;;;;;6.63;3.67;;;;;;;14.06;100.00;102067.47;6251224;28;20045;-73
2023/10/01 02:51:38;;;;;;;6.70;3.15;;;;;;;14.07;100.00;102066.53;6250747;28;20144;-75
2023/10/01 02:54:40;;;;;;;7.05;3.03;;;;;;;14.09;100.00;102068.22;6251324;28;20054;-74
2023/10/01 02:57:41;;;;;;;8.65;3.47;;;;;;;14.11;100.00;102061.03;6250939;28;20457;-74
2023/10/01 03:00:42;;;;;;;5.75;3.72;;;;;;;14.12;100.00;102062.75;6250907;28;20053;-74
2023/10/01 03:03:44;;;;;;;8.40;3.20;;;;;;;14.11;100.00;102063.69;6250925;28;20128;-74
2023/10/01 03:06:52;;;;;;;6.90;3.13;;;;;;;14.11;100.00;102063.69;6251026;28;20056;-74
2023/10/01 03:10:00;;;;;;;9.80;2.92;;;;;;;14.09;100.00;102067.34;6250620;28;20056;-74
2023/10/01 03:13:14;;;;;;;8.52;3.33;;;;;;;14.04;100.00;102066.72;6250544;28;20045;-75
2023/10/01 03:19:36;;;;;;;5.78;3.13;;;;;;;14.02;100.00;102063.25;6250530;28;20100;-74
2023/10/01 03:22:36;;;;;;;5.43;2.85;;;;;;;14.07;100.00;102059.47;6250322;28;20049;-74
2023/10/01 03:25:42;;;;;;;5.97;3.10;;;;;;;14.07;100.00;102064.75;6250705;28;20060;-74
2023/10/01 03:32:27;;;;;;;6.28;3.45;;;;;;;14.10;100.00;102059.34;6245581;28;20058;-74
2023/10/01 03:35:27;;;;;;;8.40;3.78;;;;;;;14.12;100.00;102065.41;6241136;28;20081;-74
2023/10/01 03:38:32;;;;;;;5.80;3.10;;;;;;;14.12;100.00;102059.25;6250361;28;20088;-75
2023/10/01 03:41:52;;;;;;;11.30;2.78;;;;;;;14.14;100.00;102054.78;6250735;28;20146;-74
2023/10/01 03:45:00;;;;;;;10.45;3.35;;;;;;;14.13;100.00;102058.34;6238111;28;20453;-75
2023/10/01 03:48:06;;;;;;;7.95;3.15;;;;;;;14.12;100.00;102052.19;6250326;28;20357;-75
2023/10/01 03:51:09;;;;;;;9.98;3.70;;;;;;;14.11;100.00;102047.81;6245471;28;20053;-74
2023/10/01 03:54:13;;;;;;;7.05;3.53;;;;;;;14.10;100.00;102055.84;6241729;28;20042;-74
2023/10/01 03:57:17;;;;;;;8.18;3.42;;;;;;;14.10;100.00;102042.63;6250130;28;20599;-74
2023/10/01 04:00:29;;;;;;;10.77;3.67;;;;;;;14.06;100.00;102043.69;6249824;28;20349;-74
2023/10/01 04:03:38;;;;;;;7.50;3.10;;;;;;;14.07;100.00;102045.41;6250146;28;20345;-74
2023/10/01 04:06:40;;;;;;;7.28;3.13;;;;;;;14.06;100.00;102049.84;6250132;28;20454;-75
2023/10/01 04:09:46;;;;;;;6.07;3.33;;;;;;;14.08;100.00;102050.63;6249777;28;20162;-74
2023/10/01 04:12:54;;;;;;;4.68;3.00;;;;;;;14.05;100.00;102041.97;6249751;28;20199;-74
2023/10/01 04:15:57;;;;;;;7.57;3.63;;;;;;;14.04;100.00;102045.56;6250192;28;20057;-74
2023/10/01 04:18:59;;;;;;;8.00;3.78;;;;;;;14.01;100.00;102043.06;6249743;28;20144;-74
2023/10/01 04:22:01;;;;;;;8.98;3.40;;;;;;;14.03;100.00;102046.47;6249878;28;20084;-75
2023/10/01 04:25:10;;;;;;;8.77;3.90;;;;;;;14.00;100.00;102050.13;6249832;28;20056;-75
2023/10/01 04:28:12;;;;;;;8.45;3.30;;;;;;;13.97;100.00;102047.63;6249854;28;20053;-74
2023/10/01 04:31:19;;;;;;;7.85;3.80;;;;;;;13.96;100.00;102040.63;6249416;28;20045;-75
2023/10/01 04:34:23;;;;;;;8.75;3.67;;;;;;;13.98;100.00;102046.69;6251443;28;20045;-74
2023/10/01 04:37:37;;;;;;;8.52;3.80;;;;;;;13.93;100.00;102048.69;6254204;28;20056;-74
2023/10/01 04:40:39;;;;;;;7.68;3.80;;;;;;;13.94;100.00;102048.63;6244822;28;20056;-74
2023/10/01 04:43:51;;;;;;;6.63;2.85;;;;;;;13.91;100.00;102038.19;6247243;28;20046;-74
2023/10/01 04:46:55;;;;;;;8.93;3.53;;;;;;;13.89;100.00;102034.75;6239895;28;20175;-74
2023/10/01 04:49:56;;;;;;;8.25;2.92;;;;;;;13.90;100.00;102033.00;6237499;28;20555;-73
2023/10/01 04:52:58;;;;;;;6.57;3.33;;;;;;;13.86;100.00;102029.63;6235877;28;20500;-75
2023/10/01 04:56:01;;;;;;;8.32;3.50;;;;;;;13.84;100.00;102036.75;6237202;28;20147;-74
2023/10/01 04:59:04;;;;;;;6.68;3.47;;;;;;;13.84;100.00;102042.03;6249617;28;20046;-73
2023/10/01 05:02:21;;;;;;;5.88;3.60;;;;;;;13.85;100.00;102049.06;6239268;28;20085;-75
2023/10/01 05:05:26;;;;;;;8.05;3.88;;;;;;;13.84;100.00;102052.63;6223837;28;20101;-75
2023/10/01 05:08:38;;;;;;;6.93;3.35;;;;;;;13.85;100.00;102050.81;6228885;28;20460;-75
2023/10/01 05:11:39;;;;;;;6.10;2.65;;;;;;;13.87;100.00;102052.47;6231529;28;20050;-76
2023/10/01 05:14:59;;;;;;;9.02;3.75;;;;;;;13.89;100.00;102053.25;6218875;28;20092;-76
2023/10/01 05:18:01;;;;;;;8.23;4.15;;;;;;;13.91;100.00;102046.13;6209839;28;20069;-74
2023/10/01 05:21:09;;;;;;;8.30;3.63;;;;;;;13.91;100.00;102045.28;6216992;28;20071;-73
2023/10/01 05:24:15;;;;;;;9.85;3.53;;;;;;;13.94;100.00;102039.81;6214682;28;20049;-73
2023/10/01 05:27:19;;;;;;;9.23;3.72;;;;;;;13.97;100.00;102042.34;6218781;28;20057;-73
2023/10/01 05:30:39;;;;;;;7.55;3.42;;;;;;;13.93;100.00;102049.53;6214555;28;20120;-74
2023/10/01 05:33:46;;;;;;;5.80;3.47;;;;;;;13.95;100.00;102046.84;6216782;28;20042;-73
2023/10/01 05:36:49;;;;;;;14.73;3.88;;;;;;;13.97;100.00;102052.91;6215424;28;20381;-76
2023/10/01 05:39:57;;;;;;;11.20;3.60;;;;;;;13.99;100.00;102039.59;6215892;28;20096;-74
2023/10/01 05:43:12;;;;;;;13.03;3.80;;;;;;;14.00;100.00;102044.00;6214243;28;20088;-74
2023/10/01 05:46:15;;;;;;;7.60;3.67;;;;;;;14.00;100.00;102029.00;6215233;28;20460;-73
2023/10/01 05:49:18;;;;;;;7.65;3.38;;;;;;;14.03;100.00;102022.69;6221294;28;20054;-74
2023/10/01 05:52:21;;;;;;;8.57;3.28;;;;;;;14.02;100.00;102029.75;6217882;28;20175;-76
2023/10/01 05:55:24;;;;;;;9.75;3.53;;;;;;;14.01;100.00;102024.56;6225019;28;20049;-74
2023/10/01 05:58:26;;;;;;;10.38;4.00;;;;;;;13.99;100.00;102018.47;6224495;28;20042;-72
2023/10/01 06:01:29;;;;;;;7.50;3.22;;;;;;;13.98;100.00;102022.03;6222702;28;20052;-73
2023/10/01 06:04:30;;;;;;;8.75;3.50;;;;;;;13.99;100.00;102019.34;6224209;28;20043;-75
2023/10/01 06:07:33;;;;;;;6.85;2.92;;;;;;;14.04;100.00;102032.34;6226105;28;20045;-75
2023/10/01 06:10:35;;;;;;;7.68;3.03;;;;;;;14.04;100.00;102024.41;6227802;28;20129;-73
2023/10/01 06:13:38;;;;;;;8.95;3.40;;;;;;;14.05;100.00;102029.63;6223011;28;20097;-73
2023/10/01 06:16:41;;;;;;;8.43;3.47;;;;;;;14.09;100.00;102033.00;6219536;28;20136;-73
2023/10/01 06:19:43;;;;;;;9.40;3.80;;;;;;;14.11;100.00;102031.97;6215322;28;20056;-73
2023/10/01 06:22:45;;;;;;;11.73;3.88;;;;;;;14.16;100.00;102043.19;6213136;28;20042;-73
2023/10/01 06:25:51;;;;;;;8.73;3.17;;;;;;;14.21;100.00;102035.88;6213079;28;20451;-75
2023/10/01 06:28:52;;;;;;;10.93;3.05;;;;;;;14.29;100.00;102043.44;6215137;28;20041;-75
2023/10/01 06:32:00;;;;;;;6.93;3.17;;;;;;;14.35;100.00;102045.81;6217659;28;20053;-74
2023/10/01 06:35:02;;;;;;;10.80;2.80;;;;;;;14.39;100.00;102047.34;6223890;28;20346;-73
2023/10/01 06:38:05;;;;;;;6.32;2.53;;;;;;;14.42;100.00;102051.66;6219792;28;20053;-73
2023/10/01 06:41:13;;;;;;;8.00;3.45;;;;;;;14.40;100.00;102057.03;6218136;28;20045;-72
2023/10/01 06:44:14;;;;;;;8.32;3.17;;;;;;;14.46;100.00;102055.88;6219663;28;20049;-76
2023/10/01 06:47:18;;;;;;;6.30;3.35;;;;;;;14.50;100.00;102051.31;6212815;28;20050;-74
2023/10/01 06:50:20;;;;;;;7.40;3.03;;;;;;;14.50;100.00;102049.53;6215122;28;20124;-73
2023/10/01 06:53:43;;;;;;;8.60;3.42;;;;;;;14.54;100.00;102053.75;6218664;28;20057;-72
2023/10/01 06:56:47;;;;;;;6.65;3.05;;;;;;;14.59;100.00;102054.38;6212892;28;20097;-72
2023/10/01 06:59:49;;;;;;;5.13;2.95;;;;;;;14.64;100.00;102051.50;6205535;28;20062;-73
2023/10/01 07:02:51;;;;;;;7.10;3.45;;;;;;;14.64;100.00;102054.16;6202096;28;20057;-73
2023/10/01 07:05:56;;;;;;;7.72;2.90;;;;;;;14.65;100.00;102058.50;6201927;28;20054;-74
2023/10/01 07:09:00;;;;;;;5.93;3.35;;;;;;;14.68;100.00;102053.91;6202044;28;20134;-72
2023/10/01 07:12:03;;;;;;;6.13;3.15;;;;;;;14.73;100.00;102051.03;6201509;28;20642;-72
2023/10/01 07:15:06;;;;;;;10.60;3.00;;;;;;;14.76;100.00;102052.66;6202034;28;20094;-74
2023/10/01 07:18:15;;;;;;;6.45;2.72;;;;;;;14.76;100.00;102053.53;6201791;28;20054;-72
2023/10/01 07:21:16;;;;;;;;;;;;;;;14.82;100.00;102055.03;6240901;28;20053;-72
2023/10/01 07:24:20;;;;;;;5.22;2.65;;;;;;;14.87;100.00;102045.91;6248505;28;19925;-72
2023/10/01 07:27:23;;;;;;;6.78;3.78;;;;;;;14.85;100.00;102047.78;6250773;28;20056;-72
2023/10/01 07:30:39;;;;;;;9.88;3.25;;;;;;;14.89;100.00;102049.31;6250062;28;20052;-72
2023/10/01 07:33:42;;;;;;;5.38;2.80;;;;;;;14.93;100.00;102045.59;6250530;28;20052;-72
2023/10/01 07:36:43;;;;;;;5.72;2.75;;;;;;;15.00;100.00;102046.16;6250393;28;20063;-72
2023/10/01 07:39:45;;;;;;;7.82;3.65;;;;;;;15.02;100.00;102044.25;6250382;28;20056;-72
2023/10/01 07:42:47;;;;;;;7.43;3.10;;;;;;;15.01;100.00;102050.50;6250234;28;20364;-72
2023/10/01 07:45:55;;;;;;;4.28;2.70;;;;;;;15.07;100.00;102054.63;6250648;28;20053;-72
2023/10/01 07:49:00;;;;;;;7.53;3.20;;;;;;;15.04;100.00;102052.16;6250106;28;20138;-71
2023/10/01 07:52:05;;;;;;;7.35;2.92;;;;;;;15.04;100.00;102058.28;6249829;28;20081;-71
2023/10/01 07:55:29;;;;;;;6.30;3.20;;;;;;;15.04;100.00;102063.59;6236896;28;20042;-72
2023/10/01 08:01:45;;;;;;;8.00;3.35;;;;;;;15.01;100.00;102071.69;6249623;28;20057;-72
2023/10/01 08:04:57;;;;;;;6.97;3.22;;;;;;;15.01;100.00;102079.63;6250294;28;20100;-72
2023/10/01 08:07:58;;;;;;;8.88;3.13;;;;;;;14.95;100.00;102079.94;6249898;28;20053;-71
2023/10/01 08:11:01;;;;;;;8.07;3.75;;;;;;;14.78;100.00;102091.34;6254041;28;20056;-72
2023/10/01 08:14:05;;;;;;;10.63;4.47;;;;;;;14.60;100.00;102087.81;6255134;23;20053;-74
2023/10/01 08:17:07;;;;;;;8.63;3.70;;;;;;;14.56;100.00;102088.03;6217464;28;20129;-75
2023/10/01 08:20:18;;;;;;;9.30;3.72;;;;;;;14.55;100.00;102089.84;6237819;28;20045;-75
2023/10/01 08:23:23;;;;;;;7.43;4.07;;;;;;;14.61;100.00;102084.25;6235846;28;20323;-75
2023/10/01 08:26:44;;;;;;;10.05;3.35;;;;;;;14.69;100.00;102081.22;6229977;28;20061;-75
2023/10/01 08:30:17;;;;;;;8.75;3.13;;;;;;;14.80;100.00;102085.97;6229487;28;20060;-75
2023/10/01 08:33:21;;;;;;;9.35;3.47;;;;;;;14.94;100.00;102075.56;6229620;28;20054;-75
2023/10/01 08:36:24;;;;;;;17.88;4.78;;;;;;;14.92;100.00;102083.59;6229440;28;20054;-75
2023/10/01 08:39:47;;;;;;;7.53;3.47;;;;;;;14.92;100.00;102078.28;6229289;28;20061;-76
2023/10/01 08:42:51;;;;;;;8.10;3.90;;;;;;;14.90;100.00;102081.97;6229284;28;20046;-75
2023/10/01 08:45:53;;;;;;;11.93;3.88;;;;;;;14.95;100.00;102078.16;6229513;28;20046;-75
2023/10/01 08:49:18;;;;;;;10.70;4.00;;;;;;;14.94;100.00;102076.44;6229027;28;20050;-75
2023/10/01 08:52:25;;;;;;;8.73;4.20;;;;;;;15.03;100.00;102066.28;6208238;28;20073;-74
2023/10/01 08:55:35;;;;;;;8.15;3.13;;;;;;;15.08;100.00;102065.16;6191309;28;20575;-75
2023/10/01 08:58:48;;;;;;;8.55;3.45;;;;;;;15.12;100.00;102064.03;6206336;28;20054;-74
2023/10/01 09:01:52;;;;;;;5.47;2.75;;;;;;;15.22;100.00;102057.34;6206844;28;20061;-74
2023/10/01 09:04:56;;;;;;;8.45;4.00;;;;;;;15.28;100.00;102048.22;6204367;28;20054;-75
2023/10/01 09:08:24;;;;;;;9.52;3.10;;;;;;;15.43;100.00;102043.91;6204763;28;20046;-76
2023/10/01 09:11:35;;;;;;;7.03;3.20;;;;;;;15.52;100.00;102048.72;6215143;28;20050;-75
2023/10/01 09:14:39;;;;;;;5.35;3.25;;;;;;;15.59;100.00;102050.09;6208551;28;20057;-75
2023/10/01 09:17:56;;;;;;;8.30;3.40;;;;;;;15.67;100.00;102047.94;6215304;28;20049;-75
2023/10/01 09:21:20;;;;;;;5.28;2.50;;;;;;;15.80;100.00;102057.84;6204162;28;20050;-75
2023/10/01 09:24:34;;;;;;;7.45;3.50;;;;;;;15.81;100.00;102062.25;6212453;28;20434;-76
2023/10/01 09:27:36;;;;;;;5.82;2.60;;;;;;;15.84;100.00;102067.34;6200585;28;20177;-75
2023/10/01 09:30:56;;;;;;;9.38;3.17;;;;;;;15.85;100.00;102062.00;6206116;28;20134;-75
2023/10/01 09:34:29;;;;;;;8.80;3.20;;;;;;;15.85;100.00;102063.75;6208988;28;20047;-75
2023/10/01 09:37:34;;;;;;;11.00;3.15;;;;;;;15.86;100.00;102055.75;6198417;28;20050;-75
2023/10/01 09:40:38;;;;;;;5.80;2.60;;;;;;;15.89;100.00;102062.66;6201198;28;20046;-75
2023/10/01 09:43:41;;;;;;;4.50;2.45;;;;;;;15.92;100.00;102051.91;6203577;28;20517;-75
2023/10/01 09:46:44;;;;;;;6.10;2.67;;;;;;;15.94;100.00;102050.00;6189219;28;20065;-75
2023/10/01 09:49:47;;;;;;;5.68;2.42;;;;;;;15.95;100.00;102044.63;6217155;28;20434;-74
2023/10/01 09:52:52;;;;;;;10.85;3.65;;;;;;;16.05;100.00;102039.69;6210477;28;20054;-73
2023/10/01 09:55:57;;;;;;;6.45;2.55;;;;;;;16.09;100.00;102040.38;6213140;28;20050;-73
2023/10/01 09:59:01;;;;;;;6.80;2.70;;;;;;;16.19;100.00;102031.78;6222481;28;20361;-73
2023/10/01 10:02:04;;;;;;;8.82;3.78;;;;;;;16.32;100.00;102036.41;6222514;28;20053;-73
2023/10/01 10:05:07;;;;;;;9.27;2.65;;;;;;;16.37;100.00;102032.56;6216272;28;20051;-72
2023/10/01 10:08:15;;;;;;;9.38;2.80;;;;;;;16.43;100.00;102034.00;6215723;28;20104;-72
2023/10/01 10:11:24;;;;;;;11.37;3.00;;;;;;;16.45;100.00;102029.47;6212682;28;20050;-72
2023/10/01 10:14:56;;;;;;;13.53;3.27;;;;;;;16.45;100.00;102032.97;6217308;28;20057;-72
2023/10/01 10:17:58;;;;;;;5.82;2.28;;;;;;;16.53;100.00;102037.81;6214317;28;20288;-72
2023/10/01 10:21:00;;;;;;;8.13;2.95;;;;;;;16.63;100.00;102035.50;6212499;28;20436;-72
2023/10/01 10:24:02;;;;;;;8.88;2.88;;;;;;;16.69;100.00;102025.38;6218075;28;20052;-72
2023/10/01 10:27:08;;;;;;;10.20;3.05;;;;;;;16.71;100.00;102014.66;6213034;28;20361;-74
2023/10/01 10:30:14;;;;;;;7.47;2.60;;;;;;;16.74;100.00;102022.50;6226636;28;20093;-71
2023/10/01 10:33:30;;;;;;;6.65;2.60;;;;;;;16.76;100.00;102015.31;6226144;28;20183;-72
2023/10/01 10:36:35;;;;;;;7.50;2.50;;;;;;;16.78;100.00;102012.53;6222922;28;20057;-72
2023/10/01 10:43:27;;;;;;;8.50;2.83;;;;;;;16.82;100.00;102022.91;6206564;28;20077;-72
2023/10/01 10:46:27;;;;;;;7.55;3.00;;;;;;;16.85;100.00;102024.50;6209570;28;20048;-73
2023/10/01 10:49:50;;;;;;;8.40;2.90;;;;;;;16.91;100.00;102021.50;6202965;28;20054;-74
2023/10/01 10:52:57;;;;;;;9.05;2.15;;;;;;;16.93;100.00;102031.06;6202522;28;20050;-74
2023/10/01 10:56:02;;;;;;;5.32;2.30;;;;;;;17.02;100.00;102024.34;6201889;28;20046;-74
2023/10/01 10:59:05;;;;;;;8.07;2.95;;;;;;;17.10;100.00;102029.22;6205661;28;20434;-74
2023/10/01 11:02:07;;;;;;;8.07;3.10;;;;;;;17.10;100.00;102029.22;6211160;28;20132;-74
2023/10/01 11:05:09;;;;;;;7.18;2.95;;;;;;;17.09;100.00;102028.38;6212346;28;20042;-74
2023/10/01 11:08:12;;;;;;;9.50;2.72;;;;;;;17.10;100.00;102031.88;6211196;28;20050;-74
2023/10/01 11:11:18;;;;;;;4.95;2.25;;;;;;;17.09;100.00;102023.06;6214731;28;20061;-74
2023/10/01 11:14:21;;;;;;;10.15;3.50;;;;;;;17.15;100.00;102013.84;6217685;28;20073;-73
2023/10/01 11:17:24;;;;;;;9.60;3.42;;;;;;;17.21;100.00;102024.97;6216627;28;20061;-73
2023/10/01 11:20:32;;;;;;;11.80;2.83;;;;;;;17.29;100.00;102023.63;6225903;28;20061;-73
2023/10/01 11:23:33;;;;;;;9.38;3.03;;;;;;;17.32;100.00;102020.81;6214771;28;20058;-73
2023/10/01 11:26:35;;;;;;;8.23;3.60;;;;;;;17.36;100.00;102012.53;6225690;28;20054;-74
2023/10/01 11:29:39;;;;;;;7.85;3.20;;;;;;;17.55;100.00;102016.72;6225925;28;20057;-74
2023/10/01 11:33:01;;;;;;;7.78;2.95;;;;;;;17.73;100.00;102010.25;6219463;28;20117;-73
2023/10/01 11:36:09;;;;;;;9.68;2.72;;;;;;;17.80;100.00;102016.91;6217390;28;20042;-74
2023/10/01 11:39:16;;;;;;;11.50;2.77;;;;;;;17.89;100.00;102013.66;6225357;28;20049;-75
2023/10/01 11:42:28;;;;;;;4.95;2.47;;;;;;;18.02;100.00;102003.09;6203171;28;20293;-74
2023/10/01 11:45:31;;;;;;;13.18;3.30;;;;;;;18.11;100.00;101999.81;6206150;28;20078;-73
2023/10/01 11:48:37;;;;;;;8.57;3.08;;;;;;;18.16;100.00;101997.72;6206453;28;20046;-74
2023/10/01 11:51:45;;;;;;;10.63;3.22;;;;;;;18.26;100.00;101987.34;6206066;28;20054;-74
2023/10/01 11:54:52;;;;;;;8.27;3.00;;;;;;;18.31;100.00;101985.22;6214307;28;20101;-74
2023/10/01 11:57:54;;;;;;;13.38;2.92;;;;;;;18.39;100.00;101980.22;6224415;28;20058;-74
2023/10/01 12:00:59;;;;;;;7.47;2.70;;;;;;;18.46;100.00;101964.72;6230243;28;20060;-74
2023/10/01 12:04:00;;;;;;;5.60;2.53;;;;;;;18.46;100.00;101959.38;6230645;28;20057;-74
2023/10/01 12:07:11;;;;;;;7.18;2.97;;;;;;;18.59;100.00;101951.44;6230501;28;20053;-74
2023/10/01 12:10:31;;;;;;;9.27;2.85;;;;;;;18.74;100.00;101955.72;6218924;28;20051;-73
2023/10/01 12:13:33;;;;;;;6.50;2.63;;;;;;;18.68;100.00;101958.78;6205823;28;20050;-74
2023/10/01 12:16:39;;;;;;;11.65;3.10;;;;;;;18.61;100.00;101955.69;6205440;28;20204;-74
2023/10/01 12:19:41;;;;;;;11.77;4.30;;;;;;;18.60;100.00;101961.97;6200732;28;20050;-74
2023/10/01 12:22:42;;;;;;;8.25;3.08;;;;;;;18.71;100.00;101958.59;6214310;28;20465;-74
2023/10/01 12:25:47;;;;;;;10.13;2.95;;;;;;;18.69;100.00;101956.06;6202813;28;20453;-74
2023/10/01 12:32:06;;;;;;;8.70;3.00;;;;;;;18.80;100.00;101949.97;6198017;28;20362;-74
2023/10/01 12:35:18;;;;;;;7.80;3.13;;;;;;;18.97;100.00;101943.50;6200180;28;20053;-73
2023/10/01 12:38:26;;;;;;;7.93;3.25;;;;;;;19.39;100.00;101960.94;6198033;28;20054;-75
2023/10/01 12:41:26;;;;;;;14.23;3.60;;;;;;;19.64;100.00;101952.06;6215846;28;20053;-73
2023/10/01 12:44:28;;;;;;;10.82;3.38;;;;;;;19.79;100.00;101955.44;6205766;28;20450;-72
2023/10/01 12:47:40;;;;;;;7.65;2.83;;;;;;;19.97;100.00;101953.22;6223813;28;20050;-73
2023/10/01 12:51:00;;;;;;;12.30;3.97;;;;;;;20.04;100.00;101941.16;6207614;28;20109;-72
2023/10/01 12:54:06;;;;;;;10.13;2.65;;;;;;;20.02;100.00;101938.56;6220342;28;20060;-72
2023/10/01 12:57:10;;;;;;;8.38;3.47;;;;;;;19.95;100.00;101936.50;6207878;28;20354;-72
2023/10/01 13:00:43;;;;;;;8.23;2.88;;;;;;;19.84;100.00;101939.94;6220366;28;20069;-72
2023/10/01 13:03:45;;;;;;;9.02;3.60;;;;;;;19.80;100.00;101932.28;6220234;28;20061;-73
2023/10/01 13:06:46;;;;;;;10.25;3.63;;;;;;;19.79;100.00;101930.56;6204308;28;20185;-73
2023/10/01 13:09:57;;;;;;;12.77;3.20;;;;;;;19.87;100.00;101926.38;6213207;28;20078;-73
2023/10/01 13:13:01;;;;;;;9.73;3.63;;;;;;;20.05;100.00;101921.50;6203871;28;20046;-71
2023/10/01 13:16:03;;;;;;;10.00;3.38;;;;;;;20.09;100.00;101911.44;6197735;28;20042;-72
2023/10/01 13:19:17;;;;;;;8.35;2.90;;;;;;;20.13;100.00;101903.09;6211169;28;20480;-72
2023/10/01 13:22:19;;;;;;;14.30;3.33;;;;;;;20.34;100.00;101913.94;6211042;28;20431;-79
2023/10/01 13:25:23;;;;;;;8.68;3.08;;;;;;;20.31;100.00;101910.69;6220185;28;20350;-79
2023/10/01 13:28:43;;;;;;;9.18;3.22;;;;;;;20.18;100.00;101900.94;6220209;28;20049;-72
2023/10/01 13:31:51;;;;;;;8.38;2.63;;;;;;;20.23;100.00;101912.09;6216204;28;20374;-72
2023/10/01 13:34:58;;;;;;;10.85;3.47;;;;;;;20.27;100.00;101902.91;6222912;28;20050;-72
2023/10/01 13:38:15;;;;;;;11.73;3.58;;;;;;;20.23;100.00;101900.59;6214372;28;20046;-72
2023/10/01 14:11:10;;;;;;;9.60;3.47;;;;;;;20.11;100.00;101886.31;6206322;28;20237;-72
2023/10/01 14:14:16;;;;;;;9.07;3.75;;;;;;;20.15;100.00;101870.94;6212707;28;20184;-72
2023/10/01 14:17:18;;;;;;;9.82;3.05;;;;;;;20.29;100.00;101870.72;6198208;28;20442;-72
2023/10/01 14:20:37;;;;;;;9.13;3.13;;;;;;;20.37;100.00;101870.16;6209460;28;20046;-72
2023/10/01 14:23:42;;;;;;;7.68;2.95;;;;;;;20.35;100.00;101862.28;6211701;28;20042;-72
2023/10/01 14:26:46;;;;;;;8.35;3.45;;;;;;;20.38;100.00;101863.84;6203545;28;20051;-73
2023/10/01 14:29:48;;;;;;;11.32;3.33;;;;;;;20.32;100.00;101857.16;6217057;28;20128;-74
2023/10/01 14:32:51;;;;;;;10.45;3.47;;;;;;;20.31;100.00;101851.94;6199260;28;20125;-73
2023/10/01 14:35:53;;;;;;;10.07;3.40;;;;;;;20.24;100.00;101840.88;6188759;28;20051;-73
2023/10/01 14:38:58;;;;;;;6.80;2.80;;;;;;;20.17;100.00;101845.84;6187157;28;20061;-73
2023/10/01 14:42:00;;;;;;;11.45;3.42;;;;;;;20.11;100.00;101850.78;6194841;28;20055;-73
2023/10/01 14:45:04;;;;;;;7.82;2.80;;;;;;;20.10;100.00;101843.75;6190484;28;20443;-73
2023/10/01 14:48:07;;;;;;;9.85;3.03;;;;;;;20.10;100.00;101838.41;6196074;28;20046;-73
2023/10/01 14:51:09;;;;;;;8.70;3.25;;;;;;;20.13;100.00;101840.88;6201630;28;20358;-74
2023/10/01 14:54:16;;;;;;;7.00;2.97;;;;;;;20.19;100.00;101830.56;6218021;28;20065;-73
2023/10/01 14:57:17;;;;;;;10.90;3.35;;;;;;;20.21;100.00;101835.75;6212093;28;20443;-73
2023/10/01 15:00:19;;;;;;;13.77;3.15;;;;;;;20.24;100.00;101833.72;6216140;28;20461;-73